Terminal Aerodrome Forecast
Issued by NWS Cleveland, OH

Home | Current Version | Previous Version | Graphics & Text | Print | Product List | Glossary On
Versions: 1 2 3 4 5 6 7 8 9 10 11 12 13 14 15 16 17 18 19 20 21
000
FTUS41 KCLE 241700
TAFTOL
TAF
KTOL 241740Z 2418/2518 09007KT P6SM BKN030
     FM242100 09005KT P6SM SCT035
     FM250800 12003KT 5SM BR SCT030 BKN080
     FM251300 15003KT 5SM BR BKN009
     FM251500 15005KT P6SM BKN015=

USA.gov is the U.S. government's official web portal to all federal, state and local government web resources and services.